Time;durP1;ratioP1;P1;durP2;ratioP2;P2;SDS_P1;SDS_P2;PMS_P1;PMS_P2;Temp;Humidity;BMP_temperature;BMP_pressure;BME280_temperature;BME280_humidity;BME280_pressure;Samples;Min_cycle;Max_cycle;Signal;HPM_P1;HPM_P2
2020/12/16 00:00:20;;;;;;;108.93;29.73;;;8.50;99.90;;;;;;5061193;28;20393;-52
2020/12/16 00:02:46;;;;;;;109.93;29.00;;;8.40;99.90;;;;;;5068433;28;20400;-54
2020/12/16 00:05:12;;;;;;;108.32;27.95;;;8.40;99.90;;;;;;5069392;28;20382;-52
2020/12/16 00:07:39;;;;;;;126.28;29.98;;;8.40;99.90;;;;;;5062845;28;20464;-52
2020/12/16 00:10:07;;;;;;;125.60;30.95;;;8.40;99.90;;;;;;5070758;28;20381;-51
2020/12/16 00:12:33;;;;;;;104.10;28.93;;;8.40;99.90;;;;;;5061929;28;20399;-52
2020/12/16 00:14:59;;;;;;;99.53;27.40;;;8.40;99.90;;;;;;5066065;28;20741;-54
2020/12/16 00:17:25;;;;;;;94.88;26.55;;;8.40;99.90;;;;;;5058638;28;20942;-53
2020/12/16 00:19:51;;;;;;;97.05;27.33;;;8.40;99.90;;;;;;5066560;28;20398;-52
2020/12/16 00:22:17;;;;;;;89.78;26.25;;;8.40;99.90;;;;;;5058342;28;20433;-53
2020/12/16 00:24:43;;;;;;;108.47;28.35;;;8.40;99.90;;;;;;5060361;28;20386;-54
2020/12/16 00:27:10;;;;;;;100.43;27.63;;;8.40;99.90;;;;;;5068819;28;20386;-53
2020/12/16 00:29:39;;;;;;;99.27;27.90;;;8.40;99.90;;;;;;5062822;28;20709;-53
2020/12/16 00:32:06;;;;;;;102.82;27.58;;;8.40;99.90;;;;;;5059201;28;20379;-52
2020/12/16 00:34:32;;;;;;;106.00;28.60;;;8.40;99.90;;;;;;5067575;28;20402;-52
2020/12/16 00:36:58;;;;;;;98.63;27.73;;;8.40;99.90;;;;;;5060877;28;20384;-52
2020/12/16 00:39:24;;;;;;;102.93;28.30;;;8.30;99.90;;;;;;5065162;28;20403;-55
2020/12/16 00:41:50;;;;;;;91.63;26.63;;;8.30;99.90;;;;;;5067193;28;20417;-55
2020/12/16 00:44:17;;;;;;;101.72;27.98;;;8.30;99.90;;;;;;5061546;28;20375;-52
2020/12/16 00:46:43;;;;;;;88.38;25.70;;;8.30;99.90;;;;;;5059964;28;20395;-53
2020/12/16 00:49:09;;;;;;;87.85;26.13;;;8.30;99.90;;;;;;5062717;28;20406;-54
2020/12/16 00:51:35;;;;;;;83.65;24.75;;;8.30;99.90;;;;;;5067651;28;20390;-52
2020/12/16 00:54:02;;;;;;;85.57;24.63;;;8.30;99.90;;;;;;5059458;28;20835;-54
2020/12/16 00:56:28;;;;;;;82.50;24.90;;;8.30;99.90;;;;;;5065066;28;20371;-54
2020/12/16 00:58:54;;;;;;;77.43;25.17;;;8.30;99.90;;;;;;5063395;28;20398;-52
2020/12/16 01:01:20;;;;;;;85.82;25.60;;;8.30;99.90;;;;;;5064909;28;20417;-51
2020/12/16 01:03:46;;;;;;;84.67;24.33;;;8.30;99.90;;;;;;5065474;28;20716;-53
2020/12/16 01:06:12;;;;;;;76.27;24.00;;;8.40;99.90;;;;;;5063888;28;20404;-54
2020/12/16 01:08:42;;;;;;;74.60;24.30;;;8.40;99.90;;;;;;5063155;28;20455;-52
2020/12/16 01:11:08;;;;;;;74.07;23.75;;;8.40;99.90;;;;;;5060755;28;20391;-51
2020/12/16 01:13:34;;;;;;;79.10;23.95;;;8.40;99.90;;;;;;5066406;28;20462;-55
2020/12/16 01:16:00;;;;;;;83.72;24.27;;;8.40;99.90;;;;;;5063112;28;20421;-52
2020/12/16 01:18:26;;;;;;;72.22;23.45;;;8.40;99.90;;;;;;5052766;28;20383;-52
2020/12/16 01:20:53;;;;;;;73.22;23.38;;;8.30;99.90;;;;;;5061689;28;20398;-55
2020/12/16 01:23:19;;;;;;;76.57;22.92;;;8.30;99.90;;;;;;5058212;28;20383;-52
2020/12/16 01:25:45;;;;;;;79.03;23.85;;;8.40;99.90;;;;;;5067384;28;20397;-51
2020/12/16 01:28:11;;;;;;;71.68;23.17;;;8.40;99.90;;;;;;5069711;28;20382;-52
2020/12/16 01:30:37;;;;;;;70.15;22.38;;;8.40;99.90;;;;;;5060530;28;20383;-53
2020/12/16 01:33:03;;;;;;;67.85;21.45;;;8.40;99.90;;;;;;5062823;28;20874;-52
2020/12/16 01:35:30;;;;;;;72.57;22.38;;;8.40;99.90;;;;;;5060603;28;20390;-52
2020/12/16 01:37:56;;;;;;;72.38;22.58;;;8.30;99.90;;;;;;5064995;28;20398;-54
2020/12/16 01:40:22;;;;;;;74.13;22.60;;;8.30;99.90;;;;;;5059503;28;20374;-55
2020/12/16 01:42:48;;;;;;;64.78;21.77;;;8.30;99.90;;;;;;5065500;28;20419;-54
2020/12/16 01:45:18;;;;;;;70.57;22.33;;;8.40;99.90;;;;;;5063011;28;20752;-53
2020/12/16 01:47:44;;;;;;;79.25;23.58;;;8.30;99.90;;;;;;5068784;28;20799;-52
2020/12/16 01:50:10;;;;;;;83.05;23.15;;;8.30;99.90;;;;;;5059372;28;20402;-52
2020/12/16 01:52:37;;;;;;;72.20;22.75;;;8.30;99.90;;;;;;5064461;28;20397;-51
2020/12/16 01:55:05;;;;;;;71.72;22.50;;;8.30;99.90;;;;;;5055802;28;20844;-51
2020/12/16 01:57:45;;;;;;;83.63;22.98;;;8.30;99.90;;;;;;5054239;28;20736;-52
2020/12/16 02:00:11;;;;;;;74.10;22.80;;;8.30;99.90;;;;;;5055344;28;20379;-52
2020/12/16 02:02:40;;;;;;;67.13;21.65;;;8.30;99.90;;;;;;5059991;28;20422;-53
2020/12/16 02:05:06;;;;;;;62.90;20.92;;;8.30;99.90;;;;;;5065857;28;20391;-51
2020/12/16 02:07:33;;;;;;;71.13;23.35;;;8.20;99.90;;;;;;5047019;28;20762;-51
2020/12/16 02:09:59;;;;;;;77.15;21.92;;;8.20;99.90;;;;;;5060348;28;20392;-52
2020/12/16 02:12:29;;;;;;;71.30;22.40;;;8.20;99.90;;;;;;5063834;28;20386;-52
2020/12/16 02:14:56;;;;;;;70.60;22.17;;;8.20;99.90;;;;;;5059756;28;20403;-53
2020/12/16 02:17:22;;;;;;;70.82;22.25;;;8.20;99.90;;;;;;5065688;28;20394;-51
2020/12/16 02:19:56;;;;;;;77.55;22.75;;;8.20;99.90;;;;;;5059097;28;20394;-52
2020/12/16 02:22:22;;;;;;;67.22;22.00;;;8.20;99.90;;;;;;5059946;28;20757;-53
2020/12/16 02:24:57;;;;;;;75.82;21.40;;;8.20;99.90;;;;;;5061596;28;20383;-52
2020/12/16 02:27:27;;;;;;;72.53;21.83;;;8.20;99.90;;;;;;5056452;28;20392;-52
2020/12/16 02:29:53;;;;;;;70.50;21.33;;;8.30;99.90;;;;;;5058280;28;20395;-54
2020/12/16 02:32:19;;;;;;;59.80;19.33;;;8.30;99.90;;;;;;5058864;28;21050;-54
2020/12/16 02:34:48;;;;;;;63.60;19.20;;;8.20;99.90;;;;;;5054163;28;20776;-52
2020/12/16 02:37:15;;;;;;;55.63;17.93;;;8.30;99.90;;;;;;5064491;28;20395;-52
2020/12/16 02:39:41;;;;;;;54.38;17.75;;;8.30;99.90;;;;;;5063314;28;20439;-53
2020/12/16 02:42:08;;;;;;;59.03;17.08;;;8.20;99.90;;;;;;5065129;28;20485;-53
2020/12/16 02:44:34;;;;;;;58.42;18.25;;;8.20;99.90;;;;;;5065145;28;20731;-52
2020/12/16 02:47:01;;;;;;;59.65;17.08;;;8.20;99.90;;;;;;5059052;28;20398;-52
2020/12/16 02:49:27;;;;;;;66.17;18.23;;;8.20;99.90;;;;;;5064985;28;20762;-54
2020/12/16 02:51:54;;;;;;;54.42;17.10;;;8.20;99.90;;;;;;5061679;28;20456;-54
2020/12/16 02:54:21;;;;;;;61.20;16.77;;;8.20;99.90;;;;;;5054553;28;20561;-52
2020/12/16 02:56:51;;;;;;;60.90;17.95;;;8.20;99.90;;;;;;5054459;28;20402;-52
2020/12/16 02:59:20;;;;;;;58.80;16.17;;;8.20;99.90;;;;;;5064484;28;20844;-55
2020/12/16 03:01:50;;;;;;;48.40;15.77;;;8.20;99.90;;;;;;5064222;28;20882;-55
2020/12/16 03:04:16;;;;;;;51.00;15.68;;;8.20;99.90;;;;;;5060077;28;20870;-53
2020/12/16 03:06:46;;;;;;;54.70;15.73;;;8.20;99.90;;;;;;5054502;28;20872;-52
2020/12/16 03:09:14;;;;;;;63.75;16.98;;;8.20;99.90;;;;;;5055733;28;20375;-52
2020/12/16 03:11:40;;;;;;;55.58;17.67;;;8.20;99.90;;;;;;5062828;28;20398;-54
2020/12/16 03:14:06;;;;;;;72.95;17.52;;;8.20;99.90;;;;;;5067581;28;20746;-55
2020/12/16 03:16:32;;;;;;;59.67;16.97;;;8.20;99.90;;;;;;5058648;28;20398;-52
2020/12/16 03:18:59;;;;;;;58.03;16.33;;;8.20;99.90;;;;;;5055565;28;20776;-55
2020/12/16 03:21:25;;;;;;;62.53;16.73;;;8.20;99.90;;;;;;5059134;28;20776;-55
2020/12/16 03:23:52;;;;;;;65.43;17.60;;;8.20;99.90;;;;;;5064893;28;20386;-54
2020/12/16 03:26:18;;;;;;;65.45;17.95;;;8.20;99.90;;;;;;5061236;28;20711;-53
2020/12/16 03:28:44;;;;;;;66.22;18.58;;;8.20;99.90;;;;;;5058972;28;20377;-52
2020/12/16 03:31:11;;;;;;;60.65;19.77;;;8.20;99.90;;;;;;5063512;28;20408;-52
2020/12/16 03:33:42;;;;;;;63.13;19.85;;;8.20;99.90;;;;;;5056916;28;20398;-53
2020/12/16 03:36:13;;;;;;;61.53;19.48;;;8.30;99.90;;;;;;5066828;28;20386;-54
2020/12/16 03:38:39;;;;;;;68.10;19.77;;;8.30;99.90;;;;;;5067768;28;20382;-52
2020/12/16 03:41:05;;;;;;;67.53;18.90;;;8.30;99.90;;;;;;5058931;28;20410;-54
2020/12/16 03:43:32;;;;;;;72.88;19.42;;;8.30;99.90;;;;;;5069345;28;20385;-53
2020/12/16 03:45:58;;;;;;;62.55;18.73;;;8.30;99.90;;;;;;5063889;28;20409;-53
2020/12/16 03:48:24;;;;;;;66.22;19.90;;;8.30;99.90;;;;;;5053995;28;20396;-52
2020/12/16 03:50:50;;;;;;;62.75;19.60;;;8.40;99.90;;;;;;5056310;28;20756;-54
2020/12/16 03:53:16;;;;;;;66.53;19.00;;;8.30;99.90;;;;;;5065860;28;20390;-53
2020/12/16 03:55:43;;;;;;;68.72;19.13;;;8.30;99.90;;;;;;5063514;28;20390;-55
2020/12/16 03:58:09;;;;;;;72.85;21.23;;;8.40;99.90;;;;;;5056323;28;20411;-56
2020/12/16 04:00:35;;;;;;;70.87;20.97;;;8.40;99.90;;;;;;5060419;28;20388;-54
2020/12/16 04:03:02;;;;;;;64.53;21.33;;;8.40;99.90;;;;;;5058823;28;20411;-55
2020/12/16 04:05:28;;;;;;;83.75;21.73;;;8.40;99.90;;;;;;5058410;28;20405;-55
2020/12/16 04:07:55;;;;;;;66.30;21.20;;;8.40;99.90;;;;;;5062093;28;20413;-52
2020/12/16 04:10:21;;;;;;;74.37;21.53;;;8.40;99.90;;;;;;5058235;28;20376;-54
2020/12/16 04:12:47;;;;;;;77.10;21.65;;;8.40;99.90;;;;;;5068159;28;20436;-52
2020/12/16 04:15:13;;;;;;;75.57;22.20;;;8.40;99.90;;;;;;5063224;28;20415;-52
2020/12/16 04:17:39;;;;;;;73.45;21.98;;;8.40;99.90;;;;;;5066597;28;20876;-54
2020/12/16 04:20:06;;;;;;;75.97;22.02;;;8.40;99.90;;;;;;5065407;28;20753;-55
2020/12/16 04:22:32;;;;;;;85.95;23.33;;;8.40;99.90;;;;;;5064146;28;20407;-54
2020/12/16 04:24:58;;;;;;;73.15;22.85;;;8.40;99.90;;;;;;5064400;28;20387;-52
2020/12/16 04:27:24;;;;;;;72.57;21.90;;;8.40;99.90;;;;;;5067852;28;20388;-52
2020/12/16 04:29:50;;;;;;;84.50;23.70;;;8.40;99.90;;;;;;5064857;28;20517;-54
2020/12/16 04:32:16;;;;;;;76.43;21.95;;;8.50;99.90;;;;;;5064482;28;20396;-52
2020/12/16 04:34:42;;;;;;;77.10;21.95;;;8.50;99.90;;;;;;5067490;28;20393;-52
2020/12/16 04:37:09;;;;;;;74.28;21.63;;;8.50;99.90;;;;;;5060168;28;20497;-54
2020/12/16 04:39:35;;;;;;;74.63;22.02;;;8.50;99.90;;;;;;5064980;28;20727;-55
2020/12/16 04:42:01;;;;;;;82.40;22.17;;;8.50;99.90;;;;;;5068447;28;20416;-54
2020/12/16 04:44:27;;;;;;;77.45;22.48;;;8.50;99.90;;;;;;5062553;28;20378;-53
2020/12/16 04:46:54;;;;;;;81.17;22.70;;;8.50;99.90;;;;;;5047224;28;20386;-53
2020/12/16 04:49:20;;;;;;;81.38;23.08;;;8.40;99.90;;;;;;5065710;28;20408;-52
2020/12/16 04:51:46;;;;;;;82.82;23.73;;;8.40;99.90;;;;;;5063002;28;20666;-55
2020/12/16 04:54:15;;;;;;;88.60;24.02;;;8.40;99.90;;;;;;5063642;28;20499;-55
2020/12/16 04:56:41;;;;;;;80.55;23.30;;;8.40;99.90;;;;;;5058634;28;20395;-53
2020/12/16 04:59:07;;;;;;;91.45;22.95;;;8.40;99.90;;;;;;5052902;28;20409;-54
2020/12/16 05:01:38;;;;;;;76.28;21.90;;;8.40;99.90;;;;;;5066516;28;20390;-54
2020/12/16 05:04:06;;;;;;;78.75;20.65;;;8.40;99.90;;;;;;5064220;28;20394;-55
2020/12/16 05:06:39;;;;;;;79.65;20.33;;;8.40;99.90;;;;;;5071236;28;20408;-54
2020/12/16 05:09:09;;;;;;;70.90;21.27;;;8.40;99.90;;;;;;5063361;28;20397;-54
2020/12/16 05:11:40;;;;;;;71.78;19.48;;;8.40;99.90;;;;;;5067820;28;20756;-54
2020/12/16 05:14:13;;;;;;;86.07;19.47;;;8.40;99.90;;;;;;5058669;28;20419;-54
2020/12/16 05:17:05;;;;;;;67.93;17.97;;;8.40;99.90;;;;;;5061850;28;20394;-52
2020/12/16 05:19:41;;;;;;;70.25;17.02;;;8.40;99.90;;;;;;5065487;28;20406;-51
2020/12/16 05:22:19;;;;;;;63.45;16.75;;;8.40;99.90;;;;;;5056960;28;20805;-54
2020/12/16 05:24:48;;;;;;;77.15;16.15;;;8.30;99.90;;;;;;5060039;28;20382;-55
2020/12/16 05:27:31;;;;;;;62.65;14.88;;;8.40;99.90;;;;;;5064181;28;20734;-55
2020/12/16 05:30:05;;;;;;;66.95;15.60;;;8.40;99.90;;;;;;5064866;28;20386;-51
2020/12/16 05:32:34;;;;;;;60.40;14.93;;;8.40;99.90;;;;;;5060741;28;20386;-52
2020/12/16 05:35:01;;;;;;;68.87;15.33;;;8.40;99.90;;;;;;5069786;28;20383;-51
2020/12/16 05:37:31;;;;;;;63.97;14.70;;;8.40;99.90;;;;;;5067337;28;20378;-54
2020/12/16 05:40:07;;;;;;;63.13;15.50;;;8.40;99.90;;;;;;5062836;28;20398;-54
2020/12/16 05:42:33;;;;;;;82.28;17.05;;;8.40;99.90;;;;;;5065023;28;20398;-52
2020/12/16 05:45:14;;;;;;;74.85;16.35;;;8.40;99.90;;;;;;5071580;28;20367;-50
2020/12/16 05:47:42;;;;;;;63.88;16.35;;;8.40;99.90;;;;;;5067893;28;20377;-50
2020/12/16 05:50:18;;;;;;;75.23;18.73;;;8.40;99.90;;;;;;5063675;28;20397;-50
2020/12/16 05:52:45;;;;;;;79.13;20.08;;;8.50;99.90;;;;;;5058043;28;20387;-52
2020/12/16 05:55:11;;;;;;;81.80;21.05;;;8.50;99.90;;;;;;5071404;28;20723;-50
2020/12/16 05:57:37;;;;;;;82.03;21.40;;;8.50;99.90;;;;;;5042336;28;20390;-50
2020/12/16 06:00:19;;;;;;;79.87;21.00;;;8.50;99.90;;;;;;5059222;28;20372;-52
2020/12/16 06:02:48;;;;;;;69.40;20.70;;;8.50;99.90;;;;;;5063208;28;20888;-51
2020/12/16 06:05:15;;;;;;;71.75;20.25;;;8.50;99.90;;;;;;5051601;28;20397;-50
2020/12/16 06:07:43;;;;;;;60.88;18.85;;;8.50;99.90;;;;;;5067843;28;20393;-50
2020/12/16 06:10:09;;;;;;;76.60;20.38;;;8.40;99.90;;;;;;5056240;28;20833;-50
2020/12/16 06:12:40;;;;;;;79.30;20.02;;;8.50;99.90;;;;;;5066230;28;20401;-50
2020/12/16 06:15:06;;;;;;;76.90;19.38;;;8.50;99.90;;;;;;5055534;28;20391;-50
2020/12/16 06:17:37;;;;;;;68.22;19.33;;;8.40;99.90;;;;;;5051250;28;20392;-52
2020/12/16 06:20:05;;;;;;;72.72;19.38;;;8.40;99.90;;;;;;5064948;28;20393;-50
2020/12/16 06:22:33;;;;;;;72.32;19.48;;;8.50;99.90;;;;;;5059734;28;20918;-50
2020/12/16 06:25:02;;;;;;;66.18;18.98;;;8.40;99.90;;;;;;5062858;28;20465;-50
2020/12/16 06:27:29;;;;;;;72.22;18.92;;;8.40;99.90;;;;;;5059485;28;21009;-51
2020/12/16 06:29:55;;;;;;;70.00;19.15;;;8.40;99.90;;;;;;5066187;28;20881;-50
2020/12/16 06:32:30;;;;;;;78.72;20.13;;;8.40;99.90;;;;;;5052907;28;20397;-51
2020/12/16 06:34:56;;;;;;;65.95;18.90;;;8.40;99.90;;;;;;5064636;28;20417;-52
2020/12/16 06:37:22;;;;;;;77.55;17.75;;;8.40;99.90;;;;;;5050337;28;20382;-49
2020/12/16 06:39:48;;;;;;;66.45;18.00;;;8.40;99.90;;;;;;5068246;28;20390;-51
2020/12/16 06:42:14;;;;;;;70.72;17.10;;;8.40;99.90;;;;;;5067831;28;20406;-50
2020/12/16 06:44:40;;;;;;;77.70;18.25;;;8.40;99.90;;;;;;5060350;28;20382;-49
2020/12/16 06:47:06;;;;;;;72.80;18.00;;;8.40;99.90;;;;;;5060221;28;20393;-51
2020/12/16 06:49:34;;;;;;;69.97;18.02;;;8.40;99.90;;;;;;5068137;28;20842;-50
2020/12/16 06:52:05;;;;;;;76.43;17.88;;;8.40;99.90;;;;;;5062856;28;20840;-54
2020/12/16 06:54:36;;;;;;;67.93;17.67;;;8.40;99.90;;;;;;5058801;28;20391;-50
2020/12/16 06:57:12;;;;;;;73.73;18.70;;;8.40;99.90;;;;;;5051088;28;20379;-50
2020/12/16 06:59:48;;;;;;;70.30;17.90;;;8.40;99.90;;;;;;5069049;28;20374;-51
2020/12/16 07:02:34;;;;;;;77.03;18.33;;;8.30;99.90;;;;;;5061672;28;20404;-50
2020/12/16 07:05:02;;;;;;;74.05;18.63;;;8.30;99.90;;;;;;5064002;28;20398;-49
2020/12/16 07:07:41;;;;;;;72.35;17.45;;;8.30;99.90;;;;;;5060207;28;20412;-50
2020/12/16 07:10:36;;;;;;;68.83;18.03;;;8.30;99.90;;;;;;5067350;28;20383;-49
2020/12/16 07:13:19;;;;;;;70.95;17.08;;;8.20;99.90;;;;;;5066250;28;20389;-50
2020/12/16 07:15:55;;;;;;;84.95;19.15;;;8.20;99.90;;;;;;5054142;28;20780;-51
2020/12/16 07:18:26;;;;;;;84.55;19.92;;;8.10;99.90;;;;;;5060867;28;20405;-49
2020/12/16 07:20:58;;;;;;;78.70;20.48;;;8.10;99.90;;;;;;5065761;28;20764;-50
2020/12/16 07:23:36;;;;;;;80.90;21.05;;;8.00;99.90;;;;;;5060973;28;20407;-49
2020/12/16 07:26:02;;;;;;;81.45;20.08;;;7.90;99.90;;;;;;5059641;28;20378;-50
2020/12/16 07:28:33;;;;;;;86.57;20.73;;;7.90;99.90;;;;;;5054982;28;20407;-50
2020/12/16 07:31:02;;;;;;;83.30;19.50;;;7.90;99.90;;;;;;5052450;28;20380;-51
2020/12/16 07:33:28;;;;;;;88.03;21.10;;;7.90;99.90;;;;;;5063086;28;20873;-49
2020/12/16 07:35:54;;;;;;;80.82;19.42;;;7.90;99.90;;;;;;5067310;28;20746;-51
2020/12/16 07:38:21;;;;;;;78.68;19.90;;;7.90;99.90;;;;;;5060760;28;20380;-50
2020/12/16 07:40:56;;;;;;;74.53;19.30;;;7.90;99.90;;;;;;5060938;28;20401;-50
2020/12/16 07:43:22;;;;;;;56.85;17.20;;;8.00;99.90;;;;;;5061289;28;20800;-49
2020/12/16 07:46:08;;;;;;;65.03;16.15;;;8.00;99.90;;;;;;5058374;28;20393;-50
2020/12/16 07:48:34;;;;;;;48.53;14.35;;;8.00;99.90;;;;;;5067546;28;20998;-51
2020/12/16 07:51:07;;;;;;;54.38;14.25;;;8.00;99.90;;;;;;5061848;28;20391;-53
2020/12/16 07:53:34;;;;;;;53.47;12.38;;;8.10;99.90;;;;;;5064214;28;20390;-50
2020/12/16 07:56:01;;;;;;;48.47;11.80;;;8.00;99.90;;;;;;5055762;28;20376;-50
2020/12/16 07:58:29;;;;;;;49.03;11.63;;;8.10;99.90;;;;;;5064497;28;20720;-51
2020/12/16 08:01:12;;;;;;;48.30;11.07;;;8.10;99.90;;;;;;5068417;28;20390;-51
2020/12/16 08:03:39;;;;;;;45.78;10.57;;;8.10;99.90;;;;;;5067296;28;20752;-51
2020/12/16 08:06:05;;;;;;;44.20;10.82;;;8.10;99.90;;;;;;5071578;28;20382;-50
2020/12/16 08:08:32;;;;;;;46.13;10.15;;;8.10;99.90;;;;;;5062574;28;20392;-51
2020/12/16 08:10:58;;;;;;;42.53;9.77;;;8.00;99.90;;;;;;5067516;28;20408;-49
2020/12/16 08:13:26;;;;;;;44.13;9.60;;;8.00;99.90;;;;;;5067398;28;20759;-50
2020/12/16 08:16:03;;;;;;;49.97;9.80;;;8.10;99.90;;;;;;5060648;28;20501;-50
2020/12/16 08:18:30;;;;;;;45.60;9.63;;;8.10;99.90;;;;;;5064719;28;20866;-50
2020/12/16 08:20:56;;;;;;;47.10;9.77;;;8.10;99.90;;;;;;5063417;28;20430;-51
2020/12/16 08:23:22;;;;;;;41.28;9.93;;;8.10;99.90;;;;;;5065141;28;20414;-49
2020/12/16 08:25:48;;;;;;;41.37;9.17;;;8.10;99.90;;;;;;5060764;28;20383;-54
2020/12/16 08:28:14;;;;;;;45.00;8.75;;;8.20;99.90;;;;;;5065762;28;20413;-50
2020/12/16 08:30:40;;;;;;;42.78;8.73;;;8.20;99.90;;;;;;5048728;28;20383;-50
2020/12/16 08:33:14;;;;;;;45.75;9.48;;;8.20;99.90;;;;;;5058769;28;21037;-51
2020/12/16 08:35:50;;;;;;;41.63;8.63;;;8.20;99.90;;;;;;5051526;28;20389;-50
2020/12/16 08:38:25;;;;;;;50.20;9.10;;;8.20;99.90;;;;;;5067946;28;20399;-52
2020/12/16 08:40:51;;;;;;;46.42;8.85;;;8.20;99.90;;;;;;5067168;28;20366;-50
2020/12/16 08:43:18;;;;;;;41.08;9.15;;;8.30;99.90;;;;;;5066991;28;20404;-52
2020/12/16 08:45:44;;;;;;;41.55;8.43;;;8.30;99.90;;;;;;5068286;28;20388;-50
2020/12/16 08:48:10;;;;;;;47.78;8.90;;;8.30;99.90;;;;;;5070142;28;20429;-50
2020/12/16 08:50:37;;;;;;;36.38;8.30;;;8.40;99.90;;;;;;5071856;28;20457;-49
2020/12/16 08:53:03;;;;;;;50.67;8.45;;;8.40;99.90;;;;;;5067764;28;20403;-50
2020/12/16 08:55:39;;;;;;;47.60;8.50;;;8.40;99.90;;;;;;5062716;28;21598;-50
2020/12/16 08:58:05;;;;;;;37.78;8.38;;;8.50;99.90;;;;;;5069306;28;20389;-49
2020/12/16 09:00:33;;;;;;;47.58;8.40;;;8.50;99.90;;;;;;5060568;28;20398;-51
2020/12/16 09:03:01;;;;;;;42.50;7.72;;;8.50;99.90;;;;;;5064323;28;20413;-50
2020/12/16 09:05:28;;;;;;;38.65;8.57;;;8.60;99.90;;;;;;5065553;28;20393;-50
2020/12/16 09:08:11;;;;;;;35.92;7.93;;;8.60;99.90;;;;;;5064294;28;20401;-50
2020/12/16 09:10:38;;;;;;;45.08;8.85;;;8.60;99.90;;;;;;5058909;28;20396;-49
2020/12/16 09:13:18;;;;;;;50.05;8.05;;;8.60;99.90;;;;;;5060731;28;20396;-53
2020/12/16 09:15:47;;;;;;;47.05;8.57;;;8.70;99.90;;;;;;5060327;28;20891;-54
2020/12/16 09:18:14;;;;;;;45.92;8.35;;;8.60;99.90;;;;;;5067842;28;20390;-55
2020/12/16 09:20:40;;;;;;;42.20;9.55;;;8.70;99.90;;;;;;5067740;28;20429;-53
2020/12/16 09:23:06;;;;;;;49.83;7.88;;;8.70;99.90;;;;;;5058102;28;20419;-54
2020/12/16 09:25:32;;;;;;;43.77;7.43;;;8.70;99.90;;;;;;5062192;28;20398;-51
2020/12/16 09:27:59;;;;;;;43.87;7.80;;;8.70;99.90;;;;;;5065612;28;20888;-51
2020/12/16 09:30:33;;;;;;;39.85;8.48;;;8.70;99.90;;;;;;5066686;28;20406;-51
2020/12/16 09:33:13;;;;;;;44.63;8.23;;;8.70;99.90;;;;;;5043225;28;20402;-50
2020/12/16 09:35:39;;;;;;;49.42;8.50;;;8.70;99.90;;;;;;5070546;28;20779;-50
2020/12/16 09:38:13;;;;;;;44.80;8.07;;;8.70;99.90;;;;;;5069213;28;20375;-52
2020/12/16 09:40:39;;;;;;;37.28;8.18;;;8.70;99.90;;;;;;5061812;28;20403;-52
2020/12/16 09:43:08;;;;;;;48.30;8.18;;;8.70;99.90;;;;;;5066313;28;20409;-51
2020/12/16 09:45:34;;;;;;;44.83;8.27;;;8.60;99.90;;;;;;5061428;28;20384;-50
2020/12/16 09:48:00;;;;;;;54.22;9.27;;;8.60;99.90;;;;;;5054148;28;20392;-50
2020/12/16 09:50:27;;;;;;;41.00;7.97;;;8.60;99.90;;;;;;5056199;28;20400;-50
2020/12/16 09:52:57;;;;;;;61.20;8.05;;;8.60;99.90;;;;;;5067735;28;20751;-50
2020/12/16 09:55:24;;;;;;;63.67;9.10;;;8.50;99.90;;;;;;5061273;28;20384;-49
2020/12/16 09:58:08;;;;;;;89.88;9.40;;;8.30;99.90;;;;;;5066255;28;20398;-49
2020/12/16 10:00:36;;;;;;;95.68;8.45;;;8.10;99.90;;;;;;5065396;28;20409;-50
2020/12/16 10:03:06;;;;;;;117.18;9.35;;;8.00;99.90;;;;;;5067081;28;20414;-50
2020/12/16 10:05:33;;;;;;;124.35;9.30;;;8.00;99.90;;;;;;5068746;28;20378;-52
2020/12/16 10:07:59;;;;;;;150.55;10.40;;;8.00;99.90;;;;;;5066604;28;20396;-53
2020/12/16 10:10:27;;;;;;;139.02;10.60;;;8.00;99.90;;;;;;5056863;28;20388;-52
2020/12/16 10:12:54;;;;;;;84.47;10.00;;;8.00;99.90;;;;;;5058358;28;20411;-50
2020/12/16 10:15:20;;;;;;;107.93;10.47;;;7.90;99.90;;;;;;5062726;28;20475;-49
2020/12/16 10:17:46;;;;;;;119.82;10.75;;;8.00;99.90;;;;;;5064186;28;20393;-50
2020/12/16 10:20:12;;;;;;;184.80;11.07;;;7.90;99.90;;;;;;5066332;28;20395;-52
2020/12/16 10:22:40;;;;;;;131.85;10.30;;;7.80;99.90;;;;;;5065223;28;20393;-50
2020/12/16 10:25:06;;;;;;;107.80;10.02;;;7.80;99.90;;;;;;5079729;28;20374;-50
2020/12/16 10:27:32;;;;;;;91.40;8.95;;;7.70;99.90;;;;;;5060316;28;20895;-50
2020/12/16 10:30:03;;;;;;;71.73;7.40;;;7.70;99.90;;;;;;5066133;28;20383;-53
2020/12/16 10:32:29;;;;;;;46.92;7.78;;;7.60;99.90;;;;;;5055890;28;20717;-50
2020/12/16 10:34:55;;;;;;;99.47;8.02;;;7.60;99.90;;;;;;5066420;28;20885;-49
2020/12/16 10:37:22;;;;;;;134.60;8.50;;;7.50;99.90;;;;;;5057838;28;20403;-49
2020/12/16 10:39:48;;;;;;;87.57;8.70;;;7.40;99.90;;;;;;5061354;28;20856;-51
2020/12/16 10:42:15;;;;;;;63.38;8.20;;;7.40;99.90;;;;;;5058812;28;20399;-50
2020/12/16 10:44:41;;;;;;;98.35;10.02;;;7.40;99.90;;;;;;5067190;28;20921;-50
2020/12/16 10:47:07;;;;;;;130.45;8.77;;;7.40;99.90;;;;;;5060609;28;20388;-51
2020/12/16 10:49:34;;;;;;;84.80;7.97;;;7.40;99.90;;;;;;5058354;28;20754;-54
2020/12/16 10:52:05;;;;;;;96.53;8.80;;;7.40;99.90;;;;;;5058549;28;20382;-53
2020/12/16 10:54:31;;;;;;;85.63;9.70;;;7.50;99.90;;;;;;5058067;28;20903;-50
2020/12/16 10:56:58;;;;;;;107.15;9.88;;;7.50;99.90;;;;;;5057973;28;20402;-53
2020/12/16 10:59:25;;;;;;;75.97;10.32;;;7.50;99.90;;;;;;5061456;28;20414;-50
2020/12/16 11:01:51;;;;;;;99.60;10.25;;;7.50;99.90;;;;;;5061172;28;20419;-52
2020/12/16 11:04:18;;;;;;;69.05;10.15;;;7.60;99.90;;;;;;5062319;28;20429;-53
2020/12/16 11:06:45;;;;;;;65.90;10.43;;;7.60;99.90;;;;;;5064810;28;20394;-54
2020/12/16 11:09:15;;;;;;;59.63;10.80;;;7.50;99.90;;;;;;5065432;28;20397;-54
2020/12/16 11:11:45;;;;;;;48.72;10.02;;;7.50;99.90;;;;;;5064418;28;20394;-50
2020/12/16 11:14:12;;;;;;;56.28;11.18;;;7.50;99.90;;;;;;5065668;28;20401;-52
2020/12/16 11:16:38;;;;;;;126.78;12.57;;;7.60;99.90;;;;;;5060821;28;20379;-49
2020/12/16 11:19:04;;;;;;;126.85;13.00;;;7.60;99.90;;;;;;5037974;28;20423;-49
2020/12/16 11:21:37;;;;;;;116.75;13.35;;;7.60;99.90;;;;;;5056408;28;20378;-51
2020/12/16 11:24:03;;;;;;;74.80;13.27;;;7.60;99.90;;;;;;5068403;28;20425;-51
2020/12/16 11:26:29;;;;;;;77.75;12.38;;;7.60;99.90;;;;;;5060825;28;20386;-50
2020/12/16 11:28:56;;;;;;;104.50;13.85;;;7.60;99.90;;;;;;5071229;28;20909;-51
2020/12/16 11:31:22;;;;;;;122.95;14.88;;;7.70;99.90;;;;;;5064042;28;20400;-50
2020/12/16 11:33:51;;;;;;;108.20;15.07;;;7.60;99.90;;;;;;5068546;28;20405;-52
2020/12/16 11:36:17;;;;;;;84.25;15.63;;;7.60;99.90;;;;;;5072888;28;20400;-50
2020/12/16 11:38:43;;;;;;;82.75;16.13;;;7.70;99.90;;;;;;5066368;28;20756;-49
2020/12/16 11:41:10;;;;;;;66.22;16.42;;;7.70;99.90;;;;;;5073197;28;20370;-50
2020/12/16 11:43:36;;;;;;;75.88;16.30;;;7.80;99.90;;;;;;5063701;28;20413;-53
2020/12/16 11:46:02;;;;;;;74.88;15.60;;;7.80;99.90;;;;;;5064244;28;20366;-50
2020/12/16 11:48:28;;;;;;;81.20;16.42;;;7.80;99.90;;;;;;5070145;28;20866;-51
2020/12/16 11:50:54;;;;;;;85.70;16.75;;;7.90;99.90;;;;;;5069985;28;20409;-49
2020/12/16 11:53:20;;;;;;;81.50;16.00;;;7.90;99.90;;;;;;5067678;28;20401;-49
2020/12/16 11:55:48;;;;;;;84.50;16.25;;;7.90;99.90;;;;;;5070551;28;20398;-53
2020/12/16 11:58:14;;;;;;;99.43;18.95;;;8.00;99.90;;;;;;5068011;28;20394;-50
2020/12/16 12:00:43;;;;;;;79.85;17.45;;;8.00;99.90;;;;;;5069203;28;20415;-49
2020/12/16 12:03:10;;;;;;;75.68;16.30;;;8.00;99.90;;;;;;5062680;28;20409;-49
2020/12/16 12:05:36;;;;;;;70.55;16.13;;;8.10;99.90;;;;;;5066922;28;20789;-49
2020/12/16 12:08:02;;;;;;;87.35;17.35;;;8.10;99.90;;;;;;5069690;28;20378;-50
2020/12/16 12:10:28;;;;;;;60.30;15.93;;;8.10;99.90;;;;;;5070371;28;20389;-52
2020/12/16 12:12:54;;;;;;;71.83;14.47;;;8.10;99.90;;;;;;5069685;28;20425;-52
2020/12/16 12:15:21;;;;;;;68.63;15.00;;;8.20;99.90;;;;;;5070909;28;20374;-50
2020/12/16 12:17:47;;;;;;;71.53;16.05;;;8.20;99.90;;;;;;5068867;28;20763;-51
2020/12/16 12:20:13;;;;;;;65.80;14.48;;;8.20;99.90;;;;;;5070992;28;20398;-50
2020/12/16 12:22:40;;;;;;;63.17;14.02;;;8.20;99.90;;;;;;5069560;28;20398;-49
2020/12/16 12:25:06;;;;;;;55.03;14.00;;;8.20;99.90;;;;;;5065453;28;20404;-50
2020/12/16 12:27:32;;;;;;;54.42;14.20;;;8.20;99.90;;;;;;5064015;28;20382;-50
2020/12/16 12:29:58;;;;;;;52.65;14.13;;;8.20;99.90;;;;;;5066260;28;20413;-49
2020/12/16 12:32:24;;;;;;;49.17;13.13;;;8.20;99.90;;;;;;5068826;28;20382;-52
2020/12/16 12:34:50;;;;;;;54.67;13.17;;;8.20;99.90;;;;;;5069317;28;20406;-50
2020/12/16 12:37:17;;;;;;;53.83;14.10;;;8.20;99.90;;;;;;5067708;28;20388;-51
2020/12/16 12:39:43;;;;;;;37.65;10.80;;;8.20;99.90;;;;;;5063950;28;20384;-49
2020/12/16 12:42:09;;;;;;;46.42;12.02;;;8.30;99.90;;;;;;5059924;28;20385;-49